Time;durP1;ratioP1;P1;durP2;ratioP2;P2;SDS_P1;SDS_P2;PMS_P1;PMS_P2;Temp;Humidity;BMP_temperature;BMP_pressure;BME280_temperature;BME280_humidity;BME280_pressure;Samples;Min_cycle;Max_cycle;Signal;HPM_P1;HPM_P2
2021/01/03 00:02:09;;;;;;;4.72;2.75;;;;;;;9.60;72.10;102748.86;1766139;80;21164;-46
2021/01/03 00:04:42;;;;;;;6.35;3.40;;;;;;;9.59;72.11;102749.73;1769528;80;21290;-46
2021/01/03 00:07:11;;;;;;;5.92;3.20;;;;;;;9.60;72.31;102754.05;1769615;80;21657;-46
2021/01/03 00:09:39;;;;;;;5.58;2.95;;;;;;;9.59;72.42;102757.53;1772293;80;21139;-46
2021/01/03 00:12:09;;;;;;;5.75;3.22;;;;;;;9.58;72.53;102759.66;1774315;80;21179;-46
2021/01/03 00:14:37;;;;;;;4.45;2.65;;;;;;;9.57;72.76;102756.63;1768013;80;21152;-46
2021/01/03 00:17:05;;;;;;;5.53;2.77;;;;;;;9.57;73.31;102757.05;1768395;80;21128;-45
2021/01/03 00:19:34;;;;;;;4.28;2.58;;;;;;;9.79;72.96;102750.86;1773688;80;21148;-46
2021/01/03 00:22:02;;;;;;;5.92;2.83;;;;;;;9.97;72.54;102757.16;1771838;80;21152;-46
2021/01/03 00:24:30;;;;;;;4.25;2.55;;;;;;;9.73;73.51;102752.50;1772630;80;21168;-46
2021/01/03 00:26:59;;;;;;;6.08;3.08;;;;;;;9.66;73.87;102756.77;1770769;80;21167;-46
2021/01/03 00:29:27;;;;;;;5.03;3.00;;;;;;;9.67;73.97;102757.62;1775873;80;21196;-46
2021/01/03 00:31:56;;;;;;;6.47;3.08;;;;;;;9.68;73.88;102760.27;1768045;80;21281;-46
2021/01/03 00:34:24;;;;;;;6.28;3.33;;;;;;;9.68;73.58;102761.56;1764793;80;21131;-46
2021/01/03 00:36:52;;;;;;;5.65;2.70;;;;;;;9.67;73.41;102758.50;1759286;81;21112;-46
2021/01/03 00:39:21;;;;;;;6.47;3.17;;;;;;;9.66;73.35;102761.97;1756102;81;21755;-46
2021/01/03 00:41:50;;;;;;;5.00;2.98;;;;;;;9.67;73.23;102763.70;1763009;81;21211;-46
2021/01/03 00:44:21;;;;;;;3.02;2.67;;;;;;;9.66;73.01;102765.87;1763026;81;21652;-46
2021/01/03 00:46:49;;;;;;;5.95;3.30;;;;;;;9.64;72.87;102761.05;1759877;81;21144;-46
2021/01/03 00:49:17;;;;;;;5.25;2.85;;;;;;;9.63;72.79;102766.23;1757980;81;21144;-46
2021/01/03 00:51:46;;;;;;;6.40;2.90;;;;;;;9.63;72.58;102759.73;1758978;81;21311;-46
2021/01/03 00:54:14;;;;;;;4.50;2.77;;;;;;;9.61;72.46;102761.02;1756875;81;21113;-47
2021/01/03 00:56:42;;;;;;;7.62;2.92;;;;;;;9.58;72.28;102758.36;1756384;81;21145;-46
2021/01/03 00:59:11;;;;;;;3.02;2.37;;;;;;;9.54;72.24;102760.47;1762129;81;21170;-46
2021/01/03 01:01:40;;;;;;;4.70;2.55;;;;;;;9.52;72.23;102762.17;1751959;80;21109;-46
2021/01/03 01:04:09;;;;;;;4.67;2.33;;;;;;;9.50;72.52;102757.38;1751889;81;21169;-46
2021/01/03 01:06:37;;;;;;;3.92;2.45;;;;;;;9.52;72.58;102758.73;1762735;81;21144;-46
2021/01/03 01:09:06;;;;;;;3.30;2.58;;;;;;;9.51;72.50;102755.66;1755884;80;21180;-46
2021/01/03 01:11:40;;;;;;;4.70;2.20;;;;;;;9.48;72.68;102751.29;1757759;81;21135;-46
2021/01/03 01:14:09;;;;;;;7.03;2.55;;;;;;;9.49;72.88;102750.88;1757897;81;21136;-46
2021/01/03 01:16:37;;;;;;;4.75;2.30;;;;;;;9.51;72.92;102750.47;1760981;81;21129;-46
2021/01/03 01:19:06;;;;;;;5.75;2.10;;;;;;;9.50;73.11;102741.79;1756164;81;21172;-46
2021/01/03 01:21:34;;;;;;;5.53;2.47;;;;;;;9.51;73.10;102743.97;1756399;81;21572;-46
2021/01/03 01:24:03;;;;;;;2.27;2.02;;;;;;;9.51;73.28;102739.66;1758640;81;21617;-46
2021/01/03 01:26:31;;;;;;;5.50;2.70;;;;;;;9.52;73.49;102745.28;1758695;81;21118;-46
2021/01/03 01:29:00;;;;;;;4.17;2.30;;;;;;;9.55;73.56;102745.34;1758177;81;21140;-46
2021/01/03 01:31:28;;;;;;;5.87;2.70;;;;;;;9.58;73.83;102734.97;1764703;81;21113;-46
2021/01/03 01:33:57;;;;;;;5.10;2.50;;;;;;;9.60;73.84;102733.27;1753778;81;21133;-46
2021/01/03 01:36:25;;;;;;;3.90;2.55;;;;;;;9.63;73.84;102730.72;1754366;81;21196;-46
2021/01/03 01:38:53;;;;;;;2.77;2.02;;;;;;;9.64;73.77;102726.41;1760851;81;21113;-46
2021/01/03 01:41:21;;;;;;;4.97;2.90;;;;;;;9.65;73.71;102726.42;1757964;81;21136;-46
2021/01/03 01:43:51;;;;;;;4.37;2.47;;;;;;;9.65;73.48;102727.72;1758701;81;21156;-47
2021/01/03 01:46:33;;;;;;;5.15;2.60;;;;;;;9.61;73.31;102725.93;1757332;81;21172;-47
2021/01/03 01:49:07;;;;;;;;;;;;;;;9.59;73.31;102728.94;1766711;79;21145;-44
2021/01/03 01:51:38;;;;;;;5.75;2.60;;;;;;;9.57;73.40;102725.86;1738887;81;20241;-47
2021/01/03 01:54:14;;;;;;;3.15;2.62;;;;;;;9.52;73.56;102725.80;1755820;81;21545;-46
2021/01/03 01:57:05;;;;;;;4.12;2.60;;;;;;;9.52;73.67;102721.89;1756288;81;21164;-47
2021/01/03 01:59:41;;;;;;;4.97;2.53;;;;;;;9.44;74.18;102720.92;1757445;81;21108;-47
2021/01/03 02:02:38;;;;;;;5.62;2.75;;;;;;;9.44;74.18;102720.92;1699563;83;22340;-46
2021/01/03 02:05:21;;;;;;;6.70;2.83;;;;;;;9.41;74.02;102718.30;1698308;83;21670;-46
2021/01/03 02:08:11;;;;;;;6.90;2.72;;;;;;;9.41;74.32;102725.20;1679181;85;21181;-46
2021/01/03 02:10:47;;;;;;;5.37;2.87;;;;;;;9.47;74.52;102711.88;1810731;79;22425;-47
2021/01/03 02:13:23;;;;;;;6.53;2.70;;;;;;;9.46;74.51;102720.52;1786004;80;21147;-46
2021/01/03 02:15:55;;;;;;;8.03;2.80;;;;;;;9.48;74.53;102720.56;1774889;80;21152;-47
2021/01/03 02:18:23;;;;;;;;;;;;;;;9.50;74.54;102721.00;1727559;83;21171;-45
2021/01/03 02:21:29;;;;;;;4.20;2.70;;;;;;;9.51;74.63;102717.56;1725924;81;20164;-46
2021/01/03 02:24:29;;;;;;;8.23;3.30;;;;;;;9.53;74.62;102715.86;1723170;81;21203;-47
2021/01/03 02:27:26;;;;;;;4.90;3.10;;;;;;;9.59;74.49;102713.34;1821424;76;28189;-47
2021/01/03 02:29:59;;;;;;;5.35;2.80;;;;;;;9.67;74.49;102713.02;1809971;79;23100;-47
2021/01/03 02:32:29;;;;;;;5.92;2.92;;;;;;;9.68;74.12;102716.08;1726600;83;21151;-46
2021/01/03 02:34:58;;;;;;;7.65;3.60;;;;;;;9.68;74.18;102718.67;1703530;83;21702;-46
2021/01/03 02:37:34;;;;;;;4.00;2.58;;;;;;;9.68;74.25;102716.50;1720921;83;21290;-47
2021/01/03 02:40:08;;;;;;;8.58;3.83;;;;;;;9.69;74.38;102720.41;1664883;84;21233;-47
2021/01/03 02:42:43;;;;;;;5.70;3.17;;;;;;;9.75;74.43;102708.78;1814095;79;23567;-47
2021/01/03 02:45:19;;;;;;;6.15;3.10;;;;;;;9.72;74.34;102710.06;1726593;83;21156;-47
2021/01/03 02:47:47;;;;;;;5.17;2.95;;;;;;;9.74;74.06;102707.47;1659597;86;21239;-47
2021/01/03 02:50:22;;;;;;;6.60;2.60;;;;;;;9.73;74.08;102709.19;1671384;86;21304;-47
2021/01/03 02:52:50;;;;;;;6.95;2.70;;;;;;;9.73;74.22;102706.59;1671545;86;21636;-47
2021/01/03 02:55:19;;;;;;;5.35;2.67;;;;;;;9.74;74.26;102699.67;1670050;86;21147;-47
2021/01/03 02:57:48;;;;;;;5.78;2.83;;;;;;;9.75;74.18;102700.98;1671661;86;21196;-47
2021/01/03 03:00:33;;;;;;;5.67;2.83;;;;;;;9.75;74.19;102699.69;1671473;86;21176;-47
2021/01/03 03:03:01;;;;;;;8.08;3.17;;;;;;;9.77;74.26;102703.59;1671485;86;21184;-47
2021/01/03 03:05:29;;;;;;;5.17;3.00;;;;;;;9.77;74.40;102695.38;1671205;86;21219;-47
2021/01/03 03:07:57;;;;;;;5.53;3.00;;;;;;;9.77;74.50;102690.17;1671558;86;21644;-47
2021/01/03 03:10:26;;;;;;;6.50;3.20;;;;;;;9.81;74.58;102690.66;1671379;86;21171;-47
2021/01/03 03:12:57;;;;;;;6.60;2.80;;;;;;;9.81;74.63;102685.45;1670480;86;21172;-49
2021/01/03 03:15:26;;;;;;;4.30;3.58;;;;;;;9.83;74.65;102679.84;1671682;86;21211;-47
2021/01/03 03:17:54;;;;;;;5.28;3.80;;;;;;;9.84;74.73;102676.41;1671263;86;21169;-47
2021/01/03 03:20:23;;;;;;;3.72;3.17;;;;;;;9.87;74.82;102676.00;1671637;86;21169;-48
2021/01/03 03:22:51;;;;;;;4.83;3.20;;;;;;;9.88;74.70;102681.63;1671272;86;21147;-48
2021/01/03 03:25:20;;;;;;;5.08;3.55;;;;;;;9.86;74.75;102668.62;1670638;86;21761;-48
2021/01/03 03:27:48;;;;;;;5.87;3.75;;;;;;;9.85;74.88;102675.53;1671311;86;21180;-48
2021/01/03 03:30:19;;;;;;;11.33;3.60;;;;;;;9.87;75.08;102676.00;1671473;86;21273;-48
2021/01/03 03:32:52;;;;;;;4.42;3.87;;;;;;;9.88;74.97;102670.80;1670369;86;21240;-48
2021/01/03 03:35:24;;;;;;;3.40;3.10;;;;;;;9.88;74.94;102671.23;1670883;86;21193;-48
2021/01/03 03:37:59;;;;;;;3.83;3.42;;;;;;;9.91;74.91;102669.98;1767821;79;23998;-47
2021/01/03 03:40:27;;;;;;;3.30;3.00;;;;;;;9.84;74.85;102673.80;1733472;82;21153;-48
2021/01/03 03:42:56;;;;;;;6.33;3.17;;;;;;;9.90;74.67;102674.71;1744432;81;21270;-48
2021/01/03 03:45:24;;;;;;;4.97;3.65;;;;;;;9.88;74.68;102674.70;1732289;82;21176;-48
2021/01/03 03:47:52;;;;;;;7.58;4.00;;;;;;;10.02;74.40;102670.95;1741845;82;21161;-48
2021/01/03 03:50:23;;;;;;;7.42;4.70;;;;;;;10.01;74.40;102674.42;1737131;82;21632;-48
2021/01/03 03:52:51;;;;;;;11.30;4.50;;;;;;;10.12;74.27;102676.75;1737584;82;21188;-48
2021/01/03 03:55:20;;;;;;;5.33;3.92;;;;;;;10.12;74.53;102667.65;1741271;82;21501;-48
2021/01/03 03:57:49;;;;;;;10.38;4.90;;;;;;;10.16;74.49;102672.03;1734326;82;21201;-49
2021/01/03 04:00:21;;;;;;;9.05;4.45;;;;;;;10.19;74.50;102668.14;1740904;82;21144;-48
2021/01/03 04:02:50;;;;;;;4.75;3.58;;;;;;;10.21;74.53;102676.83;1656255;84;21177;-48
2021/01/03 04:05:25;;;;;;;8.90;4.65;;;;;;;10.22;74.78;102678.59;1654667;86;21175;-48
2021/01/03 04:07:53;;;;;;;9.10;4.37;;;;;;;10.24;74.74;102676.42;1653484;86;21203;-49
2021/01/03 04:10:21;;;;;;;6.40;3.83;;;;;;;10.28;74.60;102679.95;1658496;86;21143;-48
2021/01/03 04:12:50;;;;;;;7.45;3.87;;;;;;;10.29;74.66;102680.38;1661601;86;21631;-49
2021/01/03 04:15:19;;;;;;;8.00;3.90;;;;;;;10.30;74.68;102683.02;1656467;86;21167;-48
2021/01/03 04:17:48;;;;;;;7.70;3.90;;;;;;;10.32;74.69;102680.00;1655965;86;21175;-48
2021/01/03 04:20:18;;;;;;;8.35;3.83;;;;;;;10.33;74.55;102675.23;1630999;86;21194;-48
2021/01/03 04:22:46;;;;;;;5.83;3.40;;;;;;;10.33;74.43;102682.16;1658488;86;21151;-48
2021/01/03 04:25:15;;;;;;;5.58;3.72;;;;;;;10.30;74.35;102676.52;1656227;86;21217;-49
2021/01/03 04:27:44;;;;;;;5.00;3.52;;;;;;;10.35;74.14;102681.31;1656194;86;21196;-48
2021/01/03 04:30:13;;;;;;;8.30;4.30;;;;;;;10.31;74.22;102681.27;1655036;86;21172;-49
2021/01/03 04:32:41;;;;;;;6.10;3.27;;;;;;;10.29;74.11;102674.75;1659380;86;21143;-48
2021/01/03 04:35:11;;;;;;;7.20;3.92;;;;;;;10.28;74.15;102678.66;1654498;86;21187;-48
2021/01/03 04:37:39;;;;;;;7.12;3.60;;;;;;;10.08;74.95;102680.11;1640959;85;21204;-48
2021/01/03 04:40:15;;;;;;;8.45;3.83;;;;;;;10.26;74.38;102681.21;1642279;86;21186;-48
2021/01/03 04:42:56;;;;;;;7.87;3.77;;;;;;;10.03;75.21;102680.09;1771555;79;23077;-48
2021/01/03 04:45:35;;;;;;;8.45;3.45;;;;;;;9.96;75.29;102679.98;1709405;83;21186;-48
2021/01/03 04:48:27;;;;;;;8.10;3.98;;;;;;;9.97;75.49;102676.55;1771499;79;23493;-48
2021/01/03 04:51:04;;;;;;;6.62;3.62;;;;;;;9.90;75.54;102680.80;1739991;82;21141;-48
2021/01/03 04:53:46;;;;;;;10.20;4.05;;;;;;;9.91;75.59;102677.78;1738733;82;21128;-48
2021/01/03 04:56:36;;;;;;;9.38;3.77;;;;;;;9.93;75.59;102683.86;1739769;82;21152;-48
2021/01/03 04:59:30;;;;;;;8.00;3.98;;;;;;;9.92;75.66;102678.20;1742118;82;21586;-48
2021/01/03 05:02:37;;;;;;;9.33;3.70;;;;;;;9.92;75.72;102678.20;1741208;82;21152;-49
2021/01/03 05:05:34;;;;;;;9.18;3.65;;;;;;;10.23;74.62;102680.31;1735064;82;21568;-48
2021/01/03 05:08:33;;;;;;;9.20;3.75;;;;;;;10.30;74.26;102677.81;1740435;82;21215;-48
2021/01/03 05:11:07;;;;;;;7.83;4.08;;;;;;;10.15;74.77;102675.05;1747614;82;21161;-48
2021/01/03 05:14:02;;;;;;;9.03;4.70;;;;;;;9.89;75.72;102673.87;1691394;84;21180;-48
2021/01/03 05:16:31;;;;;;;11.25;4.90;;;;;;;9.85;76.00;102672.05;1705528;84;21195;-48
2021/01/03 05:18:59;;;;;;;8.43;4.67;;;;;;;9.83;76.07;102674.64;1705847;84;21765;-48
2021/01/03 05:21:52;;;;;;;8.53;5.05;;;;;;;9.82;76.18;102676.81;1706009;84;21168;-48
2021/01/03 05:24:24;;;;;;;7.35;4.87;;;;;;;9.81;76.17;102678.08;1706061;84;21172;-48
2021/01/03 05:27:03;;;;;;;9.68;5.42;;;;;;;9.82;76.22;102671.62;1806303;77;23522;-48
2021/01/03 05:29:31;;;;;;;9.38;5.47;;;;;;;9.77;76.18;102676.30;1686000;83;21192;-48
2021/01/03 05:32:03;;;;;;;9.50;5.40;;;;;;;9.74;76.20;102682.36;1693320;84;21151;-48
2021/01/03 05:34:35;;;;;;;9.08;5.25;;;;;;;9.75;76.19;102680.19;1701617;84;21140;-47
2021/01/03 05:37:21;;;;;;;7.28;5.40;;;;;;;9.79;76.25;102687.16;1771537;79;23509;-48
2021/01/03 05:39:49;;;;;;;8.55;4.10;;;;;;;9.75;76.31;102690.59;1734825;82;21173;-48
2021/01/03 05:42:34;;;;;;;6.12;3.45;;;;;;;9.77;75.97;102691.89;1738923;82;21176;-47
2021/01/03 05:45:21;;;;;;;9.25;2.83;;;;;;;9.73;75.74;102696.19;1731570;82;21140;-48
2021/01/03 05:48:01;;;;;;;3.92;2.55;;;;;;;9.75;75.57;102693.60;1810011;79;22986;-48
2021/01/03 05:50:35;;;;;;;6.03;2.95;;;;;;;9.67;75.57;102698.72;1735101;81;21226;-47
2021/01/03 05:53:26;;;;;;;3.70;2.67;;;;;;;9.64;75.66;102696.06;1734948;82;21174;-47
2021/01/03 05:56:03;;;;;;;2.80;2.15;;;;;;;9.68;75.57;102701.78;1785498;79;28135;-48
2021/01/03 05:58:42;;;;;;;7.90;2.52;;;;;;;9.67;75.56;102701.31;1693211;84;21235;-48
2021/01/03 06:01:22;;;;;;;11.53;2.72;;;;;;;9.95;74.84;102706.86;1687705;85;21182;-48
2021/01/03 06:04:09;;;;;;;8.85;3.05;;;;;;;10.17;74.33;102701.95;1810063;79;22987;-48
2021/01/03 06:07:03;;;;;;;6.90;3.40;;;;;;;10.12;74.43;102693.21;1725659;82;21204;-48
2021/01/03 06:09:36;;;;;;;5.22;4.45;;;;;;;10.65;72.70;102693.75;1718831;82;21128;-48
2021/01/03 06:12:21;;;;;;;8.05;4.92;;;;;;;10.30;74.23;102684.73;1771570;79;23070;-48
2021/01/03 06:14:56;;;;;;;10.78;5.42;;;;;;;10.19;74.64;102694.16;1648017;86;21208;-48
2021/01/03 06:17:45;;;;;;;8.18;4.50;;;;;;;10.18;74.81;102689.83;1663744;86;21175;-48
2021/01/03 06:20:25;;;;;;;10.23;4.95;;;;;;;10.20;74.94;102685.51;1652731;86;21325;-48
2021/01/03 06:23:02;;;;;;;7.92;4.80;;;;;;;10.22;74.93;102680.73;1648311;86;21191;-48
2021/01/03 06:25:53;;;;;;;7.65;5.22;;;;;;;10.29;75.07;102681.68;1771577;79;23365;-49
2021/01/03 06:28:27;;;;;;;9.80;5.45;;;;;;;10.25;75.07;102679.48;1735893;82;21545;-49
2021/01/03 06:31:33;;;;;;;8.98;5.10;;;;;;;10.29;75.17;102685.58;1744525;82;21128;-48
2021/01/03 06:34:14;;;;;;;8.53;5.30;;;;;;;10.31;75.33;102681.27;1729600;82;21621;-49
2021/01/03 06:37:06;;;;;;;6.97;4.70;;;;;;;10.34;75.44;102685.22;1732787;82;21172;-48
2021/01/03 06:40:07;;;;;;;9.73;5.10;;;;;;;10.36;75.50;102679.59;1736956;82;21177;-48
2021/01/03 06:43:05;;;;;;;8.73;4.83;;;;;;;10.38;75.50;102688.28;1738093;82;21578;-49
2021/01/03 06:46:00;;;;;;;5.78;3.83;;;;;;;10.40;75.53;102693.08;1743960;82;21314;-49
2021/01/03 06:49:19;;;;;;;8.55;4.58;;;;;;;10.45;75.55;102700.06;1734079;82;21169;-49
2021/01/03 06:52:09;;;;;;;9.15;5.05;;;;;;;10.48;75.42;102687.52;1744547;81;21310;-49
2021/01/03 06:55:04;;;;;;;7.65;5.22;;;;;;;10.37;75.38;102689.12;1654500;84;21636;-49
2021/01/03 06:57:58;;;;;;;6.33;4.42;;;;;;;10.33;75.46;102686.94;1645524;86;21183;-49
2021/01/03 07:00:45;;;;;;;8.68;5.33;;;;;;;10.37;75.78;102689.12;1772922;79;23080;-48
2021/01/03 07:03:20;;;;;;;;;;;;;;;10.43;75.37;102691.78;1736772;82;21168;-47
2021/01/03 07:06:07;;;;;;;9.08;4.65;;;;;;;10.46;75.34;102692.72;1736583;82;20177;-48
2021/01/03 07:08:51;;;;;;;8.95;5.80;;;;;;;10.46;75.41;102687.93;1738424;82;21542;-48
2021/01/03 07:11:57;;;;;;;11.75;5.53;;;;;;;10.49;75.39;102690.54;1633913;86;21295;-48
2021/01/03 07:14:40;;;;;;;12.80;5.15;;;;;;;10.51;75.54;102690.13;1633970;86;21654;-48
2021/01/03 07:17:16;;;;;;;10.85;4.75;;;;;;;10.55;75.58;102694.53;1633929;86;21748;-48
2021/01/03 07:19:54;;;;;;;11.35;4.45;;;;;;;10.59;75.39;102693.25;1633724;86;21232;-48
2021/01/03 07:22:36;;;;;;;13.88;4.22;;;;;;;10.61;75.35;102684.17;1632589;86;21257;-48
2021/01/03 07:25:27;;;;;;;8.13;4.28;;;;;;;10.68;75.44;102692.88;1810113;79;22952;-48
2021/01/03 07:28:09;;;;;;;11.03;4.05;;;;;;;10.61;75.39;102685.02;1774800;80;21159;-48
2021/01/03 07:30:59;;;;;;;12.75;4.05;;;;;;;10.57;75.59;102686.31;1768656;80;21195;-48
2021/01/03 07:33:53;;;;;;;10.18;3.83;;;;;;;10.63;75.43;102679.85;1781557;80;21120;-48
2021/01/03 07:36:27;;;;;;;12.82;4.15;;;;;;;10.64;75.36;102688.97;1769191;80;21140;-47
2021/01/03 07:39:27;;;;;;;12.13;4.47;;;;;;;10.67;75.29;102684.64;1713882;83;21175;-47
2021/01/03 07:42:20;;;;;;;9.68;4.25;;;;;;;10.70;75.25;102688.14;1717403;83;21189;-47
2021/01/03 07:44:48;;;;;;;16.32;5.10;;;;;;;10.73;75.18;102694.69;1707988;83;21234;-47
2021/01/03 07:47:44;;;;;;;8.65;3.72;;;;;;;10.79;75.17;102705.15;1710819;83;21163;-47
2021/01/03 07:50:32;;;;;;;7.03;3.67;;;;;;;10.81;75.05;102704.73;1710764;83;21171;-47
2021/01/03 07:53:36;;;;;;;7.72;3.40;;;;;;;10.84;75.03;102708.64;1711049;83;21754;-46
2021/01/03 07:56:24;;;;;;;13.60;3.98;;;;;;;10.87;74.81;102702.17;1710488;83;21171;-46
2021/01/03 07:58:55;;;;;;;9.45;4.03;;;;;;;10.92;74.72;102711.34;1717487;83;21159;-46
2021/01/03 08:01:32;;;;;;;17.42;4.17;;;;;;;11.00;74.63;102710.53;1807652;79;22385;-47
2021/01/03 08:04:28;;;;;;;5.65;3.10;;;;;;;10.98;74.54;102711.37;1767103;80;21156;-46
2021/01/03 08:07:10;;;;;;;15.35;3.42;;;;;;;11.01;74.44;102709.66;1711160;83;21141;-47
2021/01/03 08:09:38;;;;;;;11.38;4.12;;;;;;;11.05;74.29;102714.03;1675912;84;21410;-47
2021/01/03 08:12:27;;;;;;;10.78;3.80;;;;;;;11.07;74.09;102705.80;1681579;84;21237;-46
2021/01/03 08:15:02;;;;;;;10.32;3.33;;;;;;;11.08;73.94;102701.05;1682462;84;21150;-47
2021/01/03 08:17:35;;;;;;;13.88;4.15;;;;;;;11.08;73.72;102701.05;1682293;84;21181;-46
2021/01/03 08:20:22;;;;;;;9.75;3.33;;;;;;;11.13;73.66;102704.53;1771532;79;23126;-46
2021/01/03 08:22:50;;;;;;;10.45;3.30;;;;;;;11.09;73.69;102705.38;1738534;82;21168;-46
2021/01/03 08:25:24;;;;;;;10.18;3.65;;;;;;;11.11;73.77;102701.05;1744429;82;21177;-46
2021/01/03 08:28:17;;;;;;;9.33;3.80;;;;;;;11.14;73.70;102705.41;1744711;81;21585;-46
2021/01/03 08:30:45;;;;;;;11.97;3.70;;;;;;;11.16;73.67;102709.78;1729667;82;21783;-46
2021/01/03 08:33:25;;;;;;;10.65;3.15;;;;;;;11.21;73.52;102704.61;1721674;82;22570;-46
2021/01/03 08:35:53;;;;;;;10.45;3.90;;;;;;;11.23;73.44;102708.94;1745032;82;21665;-46
2021/01/03 08:38:27;;;;;;;8.48;3.10;;;;;;;11.28;73.33;102712.46;1738271;82;21176;-46
2021/01/03 08:41:04;;;;;;;10.95;4.12;;;;;;;11.33;73.15;102709.44;1737172;82;21145;-47
2021/01/03 08:43:34;;;;;;;7.25;3.15;;;;;;;11.34;72.94;102711.20;1707420;84;21204;-47
2021/01/03 08:46:03;;;;;;;8.63;3.22;;;;;;;11.36;72.82;102708.16;1708829;84;21234;-46
2021/01/03 08:48:31;;;;;;;7.70;2.80;;;;;;;11.39;72.54;102706.89;1708596;84;21137;-46
2021/01/03 08:51:10;;;;;;;8.25;3.40;;;;;;;11.37;72.15;102707.28;1708733;84;21538;-45
2021/01/03 08:53:38;;;;;;;12.00;3.42;;;;;;;11.35;71.87;102712.92;1704947;84;21152;-45
2021/01/03 08:56:17;;;;;;;8.80;3.17;;;;;;;11.31;71.65;102708.55;1702569;84;21301;-45
2021/01/03 08:58:45;;;;;;;10.78;2.75;;;;;;;11.27;71.59;102712.46;1708631;84;21177;-45
2021/01/03 09:01:28;;;;;;;9.78;3.22;;;;;;;11.22;71.49;102715.03;1708806;84;21195;-45
2021/01/03 09:04:00;;;;;;;7.03;2.90;;;;;;;11.17;71.42;102711.51;1707163;84;21168;-45
2021/01/03 09:06:30;;;;;;;7.90;3.35;;;;;;;11.12;71.45;102710.63;1708878;84;21611;-45
2021/01/03 09:09:11;;;;;;;9.28;3.02;;;;;;;11.08;71.40;102706.25;1708788;84;21179;-45
2021/01/03 09:12:06;;;;;;;7.85;3.10;;;;;;;11.11;71.46;102707.98;1794506;79;28134;-45
2021/01/03 09:14:47;;;;;;;12.33;3.10;;;;;;;11.08;71.36;102708.86;1773257;80;21155;-45
2021/01/03 09:17:19;;;;;;;11.73;3.55;;;;;;;11.13;71.17;102709.74;1781274;80;21191;-45
2021/01/03 09:20:18;;;;;;;8.18;3.05;;;;;;;11.12;71.09;102711.92;1774485;80;21139;-46
2021/01/03 09:22:52;;;;;;;10.00;3.17;;;;;;;11.11;70.86;102708.86;1770485;80;21152;-45
2021/01/03 09:25:38;;;;;;;8.70;3.65;;;;;;;11.10;70.80;102706.25;1777488;80;21148;-44
2021/01/03 09:28:14;;;;;;;5.95;2.70;;;;;;;11.06;70.57;102697.55;1770525;80;21116;-45
2021/01/03 09:30:43;;;;;;;6.70;2.40;;;;;;;11.03;70.52;102697.52;1703724;83;21304;-45
2021/01/03 09:33:26;;;;;;;7.50;2.62;;;;;;;11.00;70.06;102691.00;1720665;83;21311;-45
2021/01/03 09:36:15;;;;;;;12.43;3.17;;;;;;;10.97;69.77;102690.97;1720659;83;21218;-45
2021/01/03 09:38:54;;;;;;;5.58;2.42;;;;;;;10.94;69.77;102688.77;1678973;85;21188;-45
2021/01/03 09:41:46;;;;;;;3.65;2.42;;;;;;;10.91;69.65;102683.53;1674926;85;21206;-45
2021/01/03 09:44:22;;;;;;;7.50;3.10;;;;;;;10.88;69.12;102689.58;1675675;85;21757;-45
2021/01/03 09:47:07;;;;;;;12.50;3.77;;;;;;;10.82;69.17;102673.91;1678914;84;21162;-45
2021/01/03 09:49:52;;;;;;;5.22;2.87;;;;;;;10.83;69.22;102673.06;1808951;79;23058;-46
2021/01/03 09:52:37;;;;;;;5.53;3.20;;;;;;;10.77;69.33;102667.81;1791887;80;21723;-45
2021/01/03 09:55:13;;;;;;;11.22;3.10;;;;;;;10.77;69.44;102667.81;1734907;81;21158;-46
2021/01/03 09:58:03;;;;;;;9.85;3.22;;;;;;;10.77;69.28;102650.89;1677178;85;21262;-46
2021/01/03 10:00:55;;;;;;;5.70;2.90;;;;;;;10.77;69.14;102646.98;1667046;85;21325;-46
2021/01/03 10:03:42;;;;;;;5.75;2.87;;;;;;;10.78;69.27;102636.14;1669387;85;21596;-47
2021/01/03 10:06:23;;;;;;;8.53;3.15;;;;;;;10.77;69.38;102634.38;1677103;85;21152;-47
2021/01/03 10:09:14;;;;;;;8.60;2.72;;;;;;;10.73;69.42;102629.59;1677179;85;21671;-46
2021/01/03 10:11:42;;;;;;;12.05;2.95;;;;;;;10.73;68.90;102620.91;1677286;85;21224;-47
2021/01/03 10:14:15;;;;;;;8.90;3.37;;;;;;;10.71;69.08;102613.09;1677122;85;21220;-47
2021/01/03 10:16:49;;;;;;;7.87;2.58;;;;;;;10.69;68.98;102601.80;1810044;79;23014;-46
2021/01/03 10:19:20;;;;;;;11.08;3.77;;;;;;;10.55;68.89;102603.43;1780810;80;21723;-46
2021/01/03 10:21:48;;;;;;;6.72;2.60;;;;;;;10.48;69.01;102593.39;1773061;80;21170;-47
2021/01/03 10:24:25;;;;;;;4.50;2.75;;;;;;;10.47;69.21;102592.05;1775967;80;21282;-46
2021/01/03 10:27:13;;;;;;;8.18;2.90;;;;;;;10.49;69.14;102581.23;1806446;77;23484;-46
2021/01/03 10:29:41;;;;;;;5.78;2.58;;;;;;;10.42;69.41;102579.45;1748996;81;21160;-46
2021/01/03 10:32:10;;;;;;;7.28;2.45;;;;;;;10.41;69.41;102563.38;1757995;81;21140;-46
2021/01/03 10:34:39;;;;;;;4.55;2.52;;;;;;;10.37;69.30;102570.30;1754673;81;21140;-46
2021/01/03 10:37:08;;;;;;;7.00;3.10;;;;;;;10.44;69.04;102566.02;1744957;80;21313;-47
2021/01/03 10:39:36;;;;;;;7.55;3.62;;;;;;;10.42;69.06;102557.34;1754522;81;21145;-46
2021/01/03 10:42:06;;;;;;;7.05;3.00;;;;;;;10.39;69.11;102557.30;1744940;80;21175;-46
2021/01/03 10:44:34;;;;;;;7.58;2.37;;;;;;;10.44;69.14;102568.63;1768196;81;21164;-46
2021/01/03 10:47:03;;;;;;;5.83;2.62;;;;;;;10.48;69.22;102557.38;1750939;81;21156;-46
2021/01/03 10:49:31;;;;;;;11.33;3.22;;;;;;;10.53;69.17;102557.00;1764454;81;21148;-47
2021/01/03 10:51:59;;;;;;;9.63;3.25;;;;;;;10.59;69.09;102555.73;1763525;81;21184;-47
2021/01/03 10:54:28;;;;;;;6.90;3.37;;;;;;;10.62;68.96;102553.13;1745411;80;21144;-47
2021/01/03 10:56:58;;;;;;;8.75;3.45;;;;;;;10.63;68.85;102554.89;1759180;81;21204;-47
2021/01/03 10:59:26;;;;;;;8.55;2.95;;;;;;;10.64;68.82;102551.41;1747024;81;21136;-46
2021/01/03 11:01:55;;;;;;;9.88;4.12;;;;;;;10.67;68.77;102554.05;1753376;81;21159;-47
2021/01/03 11:04:23;;;;;;;6.12;2.70;;;;;;;10.69;68.77;102546.23;1744788;80;21479;-46
2021/01/03 11:06:54;;;;;;;6.85;2.98;;;;;;;10.71;68.73;102550.60;1754256;81;21177;-46
2021/01/03 11:09:28;;;;;;;6.92;2.80;;;;;;;10.72;68.63;102547.12;1745143;80;21173;-46
2021/01/03 11:12:05;;;;;;;8.60;2.80;;;;;;;10.71;68.57;102548.00;1651980;86;21199;-47
2021/01/03 11:14:34;;;;;;;9.15;3.00;;;;;;;10.73;68.60;102538.46;1702648;84;21176;-46
2021/01/03 11:17:10;;;;;;;5.10;2.95;;;;;;;10.80;68.34;102544.13;1702648;84;21687;-47
2021/01/03 11:19:38;;;;;;;7.35;2.62;;;;;;;10.84;68.42;102547.64;1702796;84;21168;-46
2021/01/03 11:22:09;;;;;;;9.23;2.85;;;;;;;10.86;68.39;102545.46;1702662;84;21155;-46
2021/01/03 11:24:38;;;;;;;8.48;3.30;;;;;;;10.90;68.10;102548.52;1697233;84;21236;-47
2021/01/03 11:27:12;;;;;;;6.97;3.08;;;;;;;10.92;67.93;102535.07;1690834;84;21177;-47
2021/01/03 11:29:45;;;;;;;7.60;2.95;;;;;;;11.00;67.83;102522.11;1766353;79;23505;-47
2021/01/03 11:32:23;;;;;;;8.98;3.02;;;;;;;10.98;67.53;102526.02;1740188;82;21212;-47
2021/01/03 11:34:52;;;;;;;10.30;3.95;;;;;;;10.98;67.38;102523.41;1686605;84;21251;-46
2021/01/03 11:37:24;;;;;;;16.15;7.10;;;;;;;10.97;67.19;102525.56;1685498;84;21200;-47
2021/01/03 11:39:52;;;;;;;18.73;9.80;;;;;;;10.95;67.21;102530.31;1685717;84;21208;-47
2021/01/03 11:42:32;;;;;;;22.35;11.50;;;;;;;10.91;67.24;102538.56;1685504;84;21224;-46
2021/01/03 11:45:01;;;;;;;15.20;6.78;;;;;;;10.89;67.12;102532.47;1685492;84;21239;-47
2021/01/03 11:47:30;;;;;;;13.93;5.50;;;;;;;10.84;67.19;102535.92;1685791;84;21773;-46
2021/01/03 11:49:59;;;;;;;7.08;3.80;;;;;;;10.79;67.44;102531.98;1685414;84;21173;-46
2021/01/03 11:52:30;;;;;;;8.38;4.25;;;;;;;10.77;67.38;102527.20;1689376;84;21224;-47
2021/01/03 11:54:58;;;;;;;6.30;3.15;;;;;;;10.73;67.38;102531.95;1683187;84;21196;-46
2021/01/03 11:57:27;;;;;;;10.85;2.72;;;;;;;10.71;67.30;102526.29;1688617;84;21249;-46
2021/01/03 11:59:55;;;;;;;14.35;3.00;;;;;;;10.67;67.56;102515.00;1686453;84;21839;-47
2021/01/03 12:02:24;;;;;;;7.87;2.92;;;;;;;10.66;67.54;102519.75;1686997;84;21338;-47
2021/01/03 12:04:53;;;;;;;6.65;2.70;;;;;;;10.29;68.50;102524.27;1687428;84;21189;-47
2021/01/03 12:07:21;;;;;;;7.60;3.33;;;;;;;10.20;68.63;102533.32;1688133;84;21185;-47
2021/01/03 12:09:50;;;;;;;8.70;3.05;;;;;;;10.12;68.89;102531.09;1688490;84;21596;-47